Terminal Aerodrome Forecast
Issued by NWS

Home | Current Version | Previous Version | Text Only | Print | Product List | Glossary On
Versions: 1 2 3 4 5 6 7 8 9 10 11 12 13 14 15 16 17 18 19 20 21
254
FTUS42 KMLB 200947 AAB
TAFSFB
TAF AMD
KSFB 200947Z 2010/2106 00000KT 2SM BR SCT002
      TEMPO 2010/2013 1/2SM FG VV002
     FM201400 07008KT P6SM FEW030
     FM210200 05004KT P6SM SCT040 SCT120=

USA.gov is the U.S. government's official web portal to all federal, state and local government web resources and services.